Applegate, Oregon
Current Conditions -  °F | °C
As of 5:53 PM on Saturday 22 Nov 2014 (Local Time) from KMFR Reporting Station
Light Rain Light Rain  
Wind Chill: 43°   Ceiling: 4200
Heat Index: 45°   Visibility: 9mi
Dew Point: 41°   Wind: 5mph
Humidity: 86%   Direction: 30°NNE
Pressure: 30.23"   Gusts: NA
Location:  42.1499°N, 123.043°W
Report Text: KMFR 230153Z 03004KT 9SM -RA SCT030 OVC042 07/05 A3023 RMK AO2 RAB01 SLP240 P0002 T00720050
Loading
Personal Weather Stations






























Interactive Weather Map New forecast layout! Learn more

10-Day Weather Forecast

Advertisements
Track Severe Weather on mobile